Time;durP1;ratioP1;P1;durP2;ratioP2;P2;SDS_P1;SDS_P2;PMS_P1;PMS_P2;Temp;Humidity;BMP_temperature;BMP_pressure;BME280_temperature;BME280_humidity;BME280_pressure;Samples;Min_cycle;Max_cycle;Signal;HPM_P1;HPM_P2
2022/06/16 00:03:08;;;;;;;4.07;2.00;;;;;;;;;;10388901;28;20045;-51
2022/06/16 00:08:11;;;;;;;5.10;2.30;;;;;;;;;;10395611;28;20140;-54
2022/06/16 00:13:11;;;;;;;3.28;2.17;;;;;;;;;;10398782;28;20041;-51
2022/06/16 00:18:12;;;;;;;3.28;2.10;;;;;;;;;;10395156;28;20025;-55
2022/06/16 00:23:13;;;;;;;5.22;1.95;;;;;;;;;;10386611;28;20026;-54
2022/06/16 00:28:13;;;;;;;2.90;2.05;;;;;;;;;;10393792;28;20033;-50
2022/06/16 00:33:15;;;;;;;4.05;2.20;;;;;;;;;;10393012;28;20038;-50
2022/06/16 00:38:15;;;;;;;3.58;2.08;;;;;;;;;;10386798;28;20029;-49
2022/06/16 00:43:16;;;;;;;3.53;2.10;;;;;;;;;;10391660;28;20036;-49
2022/06/16 00:48:29;;;;;;;3.25;1.88;;;;;;;;;;10385743;28;20257;-50
2022/06/16 00:53:31;;;;;;;2.30;2.00;;;;;;;;;;10389832;28;20077;-50
2022/06/16 00:58:34;;;;;;;6.40;2.10;;;;;;;;;;10386627;28;20448;-51
2022/06/16 01:09:19;;;;;;;4.73;2.23;;;;;;;;;;10402656;28;20033;-54
2022/06/16 01:14:38;;;;;;;;;;;;;;;;;;10389747;28;20044;-50
2022/06/16 01:20:27;;;;;;;9.50;2.20;;;;;;;;;;10398157;28;20052;-53
2022/06/16 01:25:56;;;;;;;2.10;1.83;;;;;;;;;;10394929;28;20079;-51
2022/06/16 01:31:08;;;;;;;2.55;1.80;;;;;;;;;;10394128;28;20045;-52
2022/06/16 01:36:32;;;;;;;5.40;1.90;;;;;;;;;;10381110;28;20117;-51
2022/06/16 01:41:44;;;;;;;2.58;1.60;;;;;;;;;;10384892;28;20029;-50
2022/06/16 01:46:47;;;;;;;3.22;2.03;;;;;;;;;;10377299;28;20029;-53
2022/06/16 01:51:54;;;;;;;3.97;2.40;;;;;;;;;;10371080;28;20029;-49
2022/06/16 01:57:03;;;;;;;4.07;2.25;;;;;;;;;;10385131;28;20486;-52
2022/06/16 02:02:16;;;;;;;4.78;2.13;;;;;;;;;;10382819;28;20072;-51
2022/06/16 02:07:26;;;;;;;1.88;1.75;;;;;;;;;;10374430;28;20366;-51
2022/06/16 02:17:52;;;;;;;2.25;1.80;;;;;;;;;;10380906;28;20026;-50
2022/06/16 02:22:52;;;;;;;3.30;1.83;;;;;;;;;;10390308;28;20034;-49
2022/06/16 02:27:53;;;;;;;4.30;2.15;;;;;;;;;;10371881;28;20517;-57
2022/06/16 02:33:21;;;;;;;3.42;1.77;;;;;;;;;;10378919;28;20185;-57
2022/06/16 02:39:08;;;;;;;1.90;1.60;;;;;;;;;;10378888;28;20121;-56
2022/06/16 02:44:22;;;;;;;2.43;1.80;;;;;;;;;;10372225;28;20038;-55
2022/06/16 02:49:47;;;;;;;1.88;1.65;;;;;;;;;;10381273;28;20149;-51
2022/06/16 02:55:33;;;;;;;3.00;1.83;;;;;;;;;;10380743;28;20033;-51
2022/06/16 03:00:41;;;;;;;2.03;1.65;;;;;;;;;;10388282;28;20042;-50
2022/06/16 03:05:42;;;;;;;2.53;1.50;;;;;;;;;;10381284;28;20026;-50
2022/06/16 03:10:52;;;;;;;2.30;1.88;;;;;;;;;;10378470;28;20378;-50
2022/06/16 03:15:55;;;;;;;2.55;1.60;;;;;;;;;;10386268;28;20112;-50
2022/06/16 03:20:56;;;;;;;2.78;1.77;;;;;;;;;;10382863;28;20026;-51
2022/06/16 03:25:56;;;;;;;3.08;1.70;;;;;;;;;;10404087;28;20037;-56
2022/06/16 03:30:57;;;;;;;1.83;1.73;;;;;;;;;;10391934;28;20037;-54
2022/06/16 03:35:59;;;;;;;3.88;1.75;;;;;;;;;;10397741;28;20068;-52
2022/06/16 03:40:59;;;;;;;1.52;1.42;;;;;;;;;;10381687;28;20026;-54
2022/06/16 03:46:00;;;;;;;2.72;1.63;;;;;;;;;;10366323;28;20034;-51
2022/06/16 03:51:01;;;;;;;5.68;1.88;;;;;;;;;;10391710;28;20589;-50
2022/06/16 03:56:03;;;;;;;3.25;1.77;;;;;;;;;;10389611;28;20037;-49
2022/06/16 04:01:04;;;;;;;1.40;1.30;;;;;;;;;;10391491;28;20026;-56
2022/06/16 04:06:04;;;;;;;4.15;1.58;;;;;;;;;;10395020;28;20172;-56
2022/06/16 04:16:25;;;;;;;1.83;1.63;;;;;;;;;;10393029;28;20487;-56
2022/06/16 04:21:26;;;;;;;3.72;1.85;;;;;;;;;;10399638;28;20618;-51
2022/06/16 04:26:27;;;;;;;4.88;1.77;;;;;;;;;;10393838;28;20026;-52
2022/06/16 04:31:28;;;;;;;1.67;1.42;;;;;;;;;;10401626;28;20397;-55
2022/06/16 04:36:29;;;;;;;10.82;1.42;;;;;;;;;;10399840;28;20042;-51
2022/06/16 04:41:29;;;;;;;2.35;1.42;;;;;;;;;;10407307;28;20370;-51
2022/06/16 04:46:31;;;;;;;2.88;1.58;;;;;;;;;;10374533;28;20034;-51
2022/06/16 04:51:32;;;;;;;1.90;1.70;;;;;;;;;;10371805;28;20030;-53
2022/06/16 04:56:33;;;;;;;4.15;3.42;;;;;;;;;;10384350;28;20084;-59
2022/06/16 05:01:33;;;;;;;7.50;4.20;;;;;;;;;;10376293;28;20420;-59
2022/06/16 05:06:34;;;;;;;11.27;4.57;;;;;;;;;;10379961;28;20033;-59
2022/06/16 05:11:35;;;;;;;12.43;3.88;;;;;;;;;;10378239;28;20101;-60
2022/06/16 05:16:36;;;;;;;22.67;5.60;;;;;;;;;;10391378;28;20040;-59
2022/06/16 05:21:37;;;;;;;13.60;4.65;;;;;;;;;;10378925;28;20509;-59
2022/06/16 05:26:38;;;;;;;17.60;5.63;;;;;;;;;;10388594;28;20036;-57
2022/06/16 05:31:39;;;;;;;12.68;5.72;;;;;;;;;;10395385;28;20041;-59
2022/06/16 05:36:39;;;;;;;12.10;6.65;;;;;;;;;;10380647;28;20080;-59
2022/06/16 05:41:41;;;;;;;14.52;7.80;;;;;;;;;;10387623;28;20339;-57
2022/06/16 05:46:41;;;;;;;13.20;9.20;;;;;;;;;;10394449;28;20044;-57
2022/06/16 05:51:42;;;;;;;18.58;6.25;;;;;;;;;;10377440;28;20068;-60
2022/06/16 05:56:43;;;;;;;14.68;6.28;;;;;;;;;;10378350;28;20165;-59
2022/06/16 06:01:43;;;;;;;19.45;5.25;;;;;;;;;;10384651;28;20082;-58
2022/06/16 06:06:44;;;;;;;20.70;5.78;;;;;;;;;;10389759;28;20021;-58
2022/06/16 06:17:05;;;;;;;19.15;5.13;;;;;;;;;;10385535;28;20561;-57
2022/06/16 06:22:17;;;;;;;20.98;4.80;;;;;;;;;;10393700;28;20029;-56
2022/06/16 06:27:38;;;;;;;13.32;4.68;;;;;;;;;;10384482;28;20585;-58
2022/06/16 06:32:39;;;;;;;28.52;4.65;;;;;;;;;;10397646;28;20052;-56
2022/06/16 06:37:40;;;;;;;7.60;4.03;;;;;;;;;;10393723;28;20055;-57
2022/06/16 06:42:40;;;;;;;12.40;3.90;;;;;;;;;;10380383;28;20032;-57
2022/06/16 06:47:41;;;;;;;5.63;3.80;;;;;;;;;;10389844;28;20021;-55
2022/06/16 06:52:42;;;;;;;7.70;4.07;;;;;;;;;;10393921;28;20044;-57
2022/06/16 06:57:43;;;;;;;11.48;4.43;;;;;;;;;;10381827;28;20168;-57
2022/06/16 07:02:43;;;;;;;10.93;3.65;;;;;;;;;;10400117;28;20160;-57
2022/06/16 07:07:45;;;;;;;12.00;4.30;;;;;;;;;;10394056;28;20108;-57
2022/06/16 07:12:45;;;;;;;8.02;4.15;;;;;;;;;;10370332;28;20098;-57
2022/06/16 07:17:46;;;;;;;19.98;4.45;;;;;;;;;;10392120;28;20079;-57
2022/06/16 07:22:47;;;;;;;8.82;3.88;;;;;;;;;;10388322;28;20500;-58
2022/06/16 07:27:47;;;;;;;7.45;3.90;;;;;;;;;;10372938;28;20388;-56
2022/06/16 07:32:48;;;;;;;8.95;4.10;;;;;;;;;;10405620;28;20523;-58
2022/06/16 07:37:49;;;;;;;8.35;3.45;;;;;;;;;;10394323;28;20026;-59
2022/06/16 07:42:54;;;;;;;11.70;3.92;;;;;;;;;;10379869;28;20036;-58
2022/06/16 07:47:59;;;;;;;11.35;3.72;;;;;;;;;;10383000;28;20503;-59
2022/06/16 07:52:59;;;;;;;12.02;4.00;;;;;;;;;;10385791;28;20026;-57
2022/06/16 07:58:00;;;;;;;5.97;3.88;;;;;;;;;;10375277;28;20038;-57
2022/06/16 08:03:02;;;;;;;12.18;3.65;;;;;;;;;;10406469;28;20466;-55
2022/06/16 08:08:03;;;;;;;15.38;3.90;;;;;;;;;;10386095;28;20030;-55
2022/06/16 08:13:04;;;;;;;8.05;3.97;;;;;;;;;;10379345;28;20028;-55
2022/06/16 08:18:06;;;;;;;8.82;3.78;;;;;;;;;;10392632;28;20049;-56
2022/06/16 08:23:07;;;;;;;11.75;4.05;;;;;;;;;;10380407;28;20026;-56
2022/06/16 08:28:10;;;;;;;9.73;3.80;;;;;;;;;;10372240;28;20131;-56
2022/06/16 08:33:14;;;;;;;8.15;3.83;;;;;;;;;;10383896;28;20401;-55
2022/06/16 08:38:15;;;;;;;7.72;3.83;;;;;;;;;;10379694;28;20080;-55
2022/06/16 08:43:28;;;;;;;7.43;3.80;;;;;;;;;;10399077;28;20068;-55
2022/06/16 08:48:48;;;;;;;6.13;3.70;;;;;;;;;;10374115;28;20405;-55
2022/06/16 08:54:10;;;;;;;9.52;3.78;;;;;;;;;;10394879;28;20037;-57
2022/06/16 08:59:31;;;;;;;11.10;4.50;;;;;;;;;;10398596;28;20049;-57
2022/06/16 09:04:46;;;;;;;13.52;4.22;;;;;;;;;;10392206;28;20033;-58
2022/06/16 09:10:14;;;;;;;10.15;4.47;;;;;;;;;;10398294;28;20041;-58
2022/06/16 09:16:28;;;;;;;5.63;3.70;;;;;;;;;;10384943;28;20073;-57
2022/06/16 09:21:38;;;;;;;10.23;4.47;;;;;;;;;;10391334;28;20045;-57
2022/06/16 09:26:50;;;;;;;6.63;4.50;;;;;;;;;;10405098;28;20365;-58
2022/06/16 09:32:04;;;;;;;5.63;4.05;;;;;;;;;;10403989;28;20048;-56
2022/06/16 09:37:15;;;;;;;8.15;4.15;;;;;;;;;;10403848;28;20041;-57
2022/06/16 09:42:37;;;;;;;4.63;3.85;;;;;;;;;;10388324;28;20036;-58
2022/06/16 09:47:49;;;;;;;6.57;3.78;;;;;;;;;;10389501;28;20112;-58
2022/06/16 09:53:27;;;;;;;5.22;3.50;;;;;;;;;;10389116;28;20034;-57
2022/06/16 09:58:59;;;;;;;9.23;4.20;;;;;;;;;;10394121;28;20030;-57
2022/06/16 10:04:07;;;;;;;6.25;4.07;;;;;;;;;;10374467;28;20537;-57
2022/06/16 10:09:23;;;;;;;8.55;4.28;;;;;;;;;;10385263;28;20033;-57
2022/06/16 10:14:44;;;;;;;5.55;3.95;;;;;;;;;;10383119;28;20549;-57
2022/06/16 10:19:45;;;;;;;6.28;3.80;;;;;;;;;;10373064;28;20030;-57
2022/06/16 10:25:07;;;;;;;5.55;3.72;;;;;;;;;;10390557;28;20548;-58
2022/06/16 10:30:17;;;;;;;5.45;3.78;;;;;;;;;;10376597;28;20050;-57
2022/06/16 10:35:20;;;;;;;7.75;4.20;;;;;;;;;;10398200;28;20048;-57
2022/06/16 10:40:31;;;;;;;6.47;3.67;;;;;;;;;;10382188;28;20076;-57
2022/06/16 10:45:35;;;;;;;7.88;4.50;;;;;;;;;;10388829;28;20033;-55
2022/06/16 10:51:00;;;;;;;7.00;4.32;;;;;;;;;;10382618;28;20028;-57
2022/06/16 10:56:10;;;;;;;5.78;3.78;;;;;;;;;;10395902;28;20076;-57
2022/06/16 11:01:23;;;;;;;5.40;3.42;;;;;;;;;;10388966;28;20033;-58
2022/06/16 11:06:24;;;;;;;5.15;3.75;;;;;;;;;;10368416;28;20029;-58
2022/06/16 11:11:52;;;;;;;6.68;4.10;;;;;;;;;;10395665;28;20041;-58
2022/06/16 11:16:55;;;;;;;6.55;3.53;;;;;;;;;;10382916;28;20138;-58
2022/06/16 11:21:56;;;;;;;6.47;4.15;;;;;;;;;;10385907;28;20030;-56
2022/06/16 11:27:16;;;;;;;5.10;3.53;;;;;;;;;;10383804;28;20056;-58
2022/06/16 11:32:24;;;;;;;8.55;3.80;;;;;;;;;;10408273;28;20061;-57
2022/06/16 11:37:51;;;;;;;;;;;;;;;;;;10390412;28;20038;-58
2022/06/16 11:43:25;;;;;;;6.00;3.83;;;;;;;;;;10392709;28;19927;-58
2022/06/16 11:48:39;;;;;;;4.32;3.75;;;;;;;;;;10405796;28;20095;-60
2022/06/16 11:54:01;;;;;;;6.70;4.00;;;;;;;;;;10390784;28;20068;-56
2022/06/16 11:59:45;;;;;;;4.88;3.33;;;;;;;;;;10382477;28;20074;-60
2022/06/16 12:05:04;;;;;;;7.65;3.72;;;;;;;;;;10390490;28;20422;-59
2022/06/16 12:10:27;;;;;;;7.78;3.78;;;;;;;;;;10394008;28;20029;-58
2022/06/16 12:15:52;;;;;;;6.25;3.92;;;;;;;;;;10396971;28;20692;-56
2022/06/16 12:21:07;;;;;;;10.10;3.80;;;;;;;;;;10397330;28;20068;-57
2022/06/16 12:26:35;;;;;;;12.95;4.38;;;;;;;;;;10392176;28;20429;-58
2022/06/16 12:31:45;;;;;;;;;;;;;;;;;;10392537;28;20038;-57
2022/06/16 12:36:59;;;;;;;6.53;4.00;;;;;;;;;;10395846;28;19917;-58
2022/06/16 12:42:07;;;;;;;6.47;4.35;;;;;;;;;;10398841;28;20489;-58
2022/06/16 12:47:38;;;;;;;8.25;4.10;;;;;;;;;;10395367;28;20033;-55
2022/06/16 12:52:51;;;;;;;6.25;4.20;;;;;;;;;;10402128;28;20489;-58
2022/06/16 12:58:01;;;;;;;11.32;4.72;;;;;;;;;;10399837;28;20040;-57
2022/06/16 13:03:11;;;;;;;4.72;4.25;;;;;;;;;;10388303;28;20465;-56
2022/06/16 13:08:14;;;;;;;6.75;4.25;;;;;;;;;;10397440;28;20029;-56
2022/06/16 13:13:36;;;;;;;4.88;4.07;;;;;;;;;;10391070;28;20496;-58
2022/06/16 13:18:51;;;;;;;5.85;4.90;;;;;;;;;;10405028;28;20519;-58
2022/06/16 13:24:21;;;;;;;7.78;4.80;;;;;;;;;;10386396;28;20070;-57
2022/06/16 13:29:23;;;;;;;9.50;4.75;;;;;;;;;;10386687;28;20068;-57
2022/06/16 13:34:49;;;;;;;21.58;5.05;;;;;;;;;;10394081;28;20033;-58
2022/06/16 13:40:05;;;;;;;38.05;5.70;;;;;;;;;;10390344;28;20077;-57
2022/06/16 13:45:11;;;;;;;93.82;6.47;;;;;;;;;;10384495;28;20103;-46
2022/06/16 13:50:21;;;;;;;67.13;7.25;;;;;;;;;;10374117;28;20171;-47
2022/06/16 13:55:30;;;;;;;29.17;6.60;;;;;;;;;;10386052;28;20084;-47
2022/06/16 14:00:35;;;;;;;48.97;6.10;;;;;;;;;;10370604;28;20033;-48
2022/06/16 14:05:35;;;;;;;22.55;5.53;;;;;;;;;;10382082;28;20044;-49
2022/06/16 14:10:53;;;;;;;16.27;5.90;;;;;;;;;;10371365;28;20041;-48
2022/06/16 14:16:17;;;;;;;20.15;5.72;;;;;;;;;;10383991;28;20460;-50
2022/06/16 14:21:25;;;;;;;9.50;5.47;;;;;;;;;;10386535;28;20025;-50
2022/06/16 14:26:30;;;;;;;15.10;5.97;;;;;;;;;;10383980;28;20548;-57
2022/06/16 14:31:39;;;;;;;8.68;5.43;;;;;;;;;;10395297;28;20038;-56
2022/06/16 14:36:53;;;;;;;8.02;6.05;;;;;;;;;;10372206;28;20061;-47
2022/06/16 14:42:02;;;;;;;15.13;5.60;;;;;;;;;;10402279;28;20022;-47
2022/06/16 14:47:39;;;;;;;13.13;5.40;;;;;;;;;;10390317;28;20242;-55
2022/06/16 14:52:58;;;;;;;12.68;5.53;;;;;;;;;;10402830;28;20067;-58
2022/06/16 14:58:05;;;;;;;9.63;5.55;;;;;;;;;;10383571;28;20049;-48
2022/06/16 15:03:12;;;;;;;13.50;5.07;;;;;;;;;;10388622;28;20026;-55
2022/06/16 15:08:27;;;;;;;8.40;5.03;;;;;;;;;;10387296;28;20645;-49
2022/06/16 15:13:33;;;;;;;9.13;5.50;;;;;;;;;;10383476;28;20397;-51
2022/06/16 15:18:38;;;;;;;10.35;5.80;;;;;;;;;;10388231;28;20048;-47
2022/06/16 15:23:41;;;;;;;9.30;5.65;;;;;;;;;;10413674;28;20108;-50
2022/06/16 15:28:57;;;;;;;11.88;6.15;;;;;;;;;;10395345;28;20026;-47
2022/06/16 15:39:32;;;;;;;7.65;4.75;;;;;;;;;;10367057;28;20441;-58
2022/06/16 15:44:58;;;;;;;10.43;5.75;;;;;;;;;;10380552;28;20367;-57
2022/06/16 15:50:24;;;;;;;6.70;5.18;;;;;;;;;;10378808;28;20057;-59
2022/06/16 15:55:33;;;;;;;9.90;5.32;;;;;;;;;;10379168;28;20481;-59
2022/06/16 16:00:34;;;;;;;7.85;4.50;;;;;;;;;;10381430;28;20477;-59
2022/06/16 16:05:40;;;;;;;7.10;5.38;;;;;;;;;;10397373;28;20080;-58
2022/06/16 16:10:57;;;;;;;12.77;5.78;;;;;;;;;;10385985;28;20025;-59
2022/06/16 16:16:03;;;;;;;9.23;5.18;;;;;;;;;;10400951;28;20029;-56
2022/06/16 16:21:08;;;;;;;11.52;5.28;;;;;;;;;;10389218;28;20044;-58
2022/06/16 16:26:08;;;;;;;11.52;5.47;;;;;;;;;;10382701;28;20389;-54
2022/06/16 16:31:15;;;;;;;8.77;4.57;;;;;;;;;;10398727;28;20052;-55
2022/06/16 16:36:18;;;;;;;9.10;5.18;;;;;;;;;;10410363;28;20037;-58
2022/06/16 16:47:11;;;;;;;19.02;5.45;;;;;;;;;;10384497;28;20037;-45
2022/06/16 16:52:21;;;;;;;5.73;4.70;;;;;;;;;;10375256;28;20065;-44
2022/06/16 16:57:22;;;;;;;7.63;4.20;;;;;;;;;;10401141;28;20034;-45
2022/06/16 17:02:23;;;;;;;6.95;3.60;;;;;;;;;;10383921;28;20018;-44
2022/06/16 17:07:24;;;;;;;15.57;3.42;;;;;;;;;;10399813;28;20030;-44
2022/06/16 17:12:24;;;;;;;12.65;2.95;;;;;;;;;;10385470;28;20104;-44
2022/06/16 17:17:25;;;;;;;3.90;2.42;;;;;;;;;;10385953;28;20589;-43
2022/06/16 17:22:26;;;;;;;12.40;2.83;;;;;;;;;;10388512;28;20017;-43
2022/06/16 17:27:27;;;;;;;7.70;2.38;;;;;;;;;;10380731;28;20031;-43
2022/06/16 17:32:28;;;;;;;4.90;2.65;;;;;;;;;;10404703;28;20473;-43
2022/06/16 17:37:41;;;;;;;5.82;2.75;;;;;;;;;;10370696;28;20092;-43
2022/06/16 17:42:42;;;;;;;7.78;2.70;;;;;;;;;;10382925;28;20026;-44
2022/06/16 17:47:43;;;;;;;7.45;2.50;;;;;;;;;;10384334;28;20029;-43
2022/06/16 18:03:25;;;;;;;7.13;2.45;;;;;;;;;;10380455;28;20413;-44
2022/06/16 18:08:33;;;;;;;4.97;2.17;;;;;;;;;;10398130;28;20116;-43
2022/06/16 18:13:39;;;;;;;4.75;2.42;;;;;;;;;;10395540;28;20026;-43
2022/06/16 18:18:43;;;;;;;5.97;2.17;;;;;;;;;;10395677;28;20041;-44
2022/06/16 18:23:45;;;;;;;4.90;2.60;;;;;;;;;;10405023;28;20037;-43
2022/06/16 18:28:55;;;;;;;6.97;2.47;;;;;;;;;;10399899;28;20042;-43
2022/06/16 18:33:55;;;;;;;7.55;2.42;;;;;;;;;;10393699;28;20038;-43
2022/06/16 18:38:56;;;;;;;8.98;2.33;;;;;;;;;;10382570;28;20377;-46
2022/06/16 18:43:57;;;;;;;10.55;3.10;;;;;;;;;;10381945;28;20037;-43
2022/06/16 18:48:58;;;;;;;8.57;3.05;;;;;;;;;;10395438;28;20057;-43
2022/06/16 18:54:00;;;;;;;7.03;2.53;;;;;;;;;;10386590;28;20061;-43
2022/06/16 18:59:01;;;;;;;7.97;2.63;;;;;;;;;;10374253;28;20048;-43
2022/06/16 19:04:04;;;;;;;8.30;2.63;;;;;;;;;;10389309;28;20030;-43
2022/06/16 19:09:06;;;;;;;6.05;2.42;;;;;;;;;;10389371;28;20041;-43
2022/06/16 19:14:07;;;;;;;8.38;3.22;;;;;;;;;;10393798;28;20392;-42
2022/06/16 19:19:12;;;;;;;7.25;2.90;;;;;;;;;;10402403;28;20086;-42
2022/06/16 19:24:27;;;;;;;10.00;2.88;;;;;;;;;;10392584;28;20036;-42
2022/06/16 19:29:28;;;;;;;9.25;2.80;;;;;;;;;;10376651;28;20568;-43
2022/06/16 19:34:29;;;;;;;6.93;2.70;;;;;;;;;;10386249;28;20037;-42
2022/06/16 19:39:30;;;;;;;11.25;2.63;;;;;;;;;;10378822;28;20231;-43
2022/06/16 19:55:20;;;;;;;9.65;2.67;;;;;;;;;;10385748;28;20038;-42
2022/06/16 20:00:28;;;;;;;7.50;2.33;;;;;;;;;;10379536;28;20037;-44
2022/06/16 20:05:30;;;;;;;7.35;2.60;;;;;;;;;;10376727;28;20392;-44
2022/06/16 20:10:31;;;;;;;3.40;2.20;;;;;;;;;;10381694;28;20127;-42
2022/06/16 20:15:32;;;;;;;8.15;2.40;;;;;;;;;;10381913;28;20113;-42
2022/06/16 20:20:37;;;;;;;6.53;2.70;;;;;;;;;;10379871;28;20022;-42
2022/06/16 20:25:38;;;;;;;7.82;3.58;;;;;;;;;;10378592;28;20481;-42
2022/06/16 20:30:38;;;;;;;8.73;2.72;;;;;;;;;;10378803;28;20057;-43
2022/06/16 20:35:41;;;;;;;7.63;2.53;;;;;;;;;;10385371;28;20044;-42
2022/06/16 20:40:47;;;;;;;9.52;2.95;;;;;;;;;;10379854;28;20050;-42
2022/06/16 20:45:48;;;;;;;5.65;2.63;;;;;;;;;;10370516;28;20030;-44
2022/06/16 20:50:51;;;;;;;4.45;2.42;;;;;;;;;;10391765;28;20028;-42
2022/06/16 20:55:51;;;;;;;9.05;2.47;;;;;;;;;;10379418;28;20041;-42
2022/06/16 21:06:21;;;;;;;7.18;2.50;;;;;;;;;;10402373;28;20458;-43
2022/06/16 21:16:41;;;;;;;8.00;2.72;;;;;;;;;;10399689;28;20029;-42
2022/06/16 21:21:41;;;;;;;4.60;2.60;;;;;;;;;;10391830;28;20028;-42
2022/06/16 21:26:42;;;;;;;7.70;3.00;;;;;;;;;;10394372;28;20025;-44
2022/06/16 21:31:43;;;;;;;9.07;3.13;;;;;;;;;;10385384;28;20045;-43
2022/06/16 21:36:44;;;;;;;7.97;3.33;;;;;;;;;;10401222;28;20048;-44
2022/06/16 21:41:44;;;;;;;9.57;4.13;;;;;;;;;;10387515;28;20068;-42
2022/06/16 21:46:45;;;;;;;10.77;3.90;;;;;;;;;;10387001;28;20474;-45
2022/06/16 21:51:46;;;;;;;9.25;4.32;;;;;;;;;;10391094;28;20607;-47
2022/06/16 21:56:46;;;;;;;12.57;4.07;;;;;;;;;;10388607;28;20037;-46
2022/06/16 22:01:47;;;;;;;6.13;4.25;;;;;;;;;;10371898;28;20026;-45
2022/06/16 22:06:48;;;;;;;9.98;4.38;;;;;;;;;;10390685;28;20087;-46
2022/06/16 22:17:21;;;;;;;7.00;3.85;;;;;;;;;;10390133;28;20037;-46
2022/06/16 22:22:23;;;;;;;11.10;4.60;;;;;;;;;;10383597;28;20026;-46
2022/06/16 22:27:24;;;;;;;12.63;4.65;;;;;;;;;;10374568;28;20029;-45
2022/06/16 22:32:24;;;;;;;9.82;4.35;;;;;;;;;;10380247;28;20493;-45
2022/06/16 22:37:25;;;;;;;9.90;4.55;;;;;;;;;;10375473;28;20065;-46
2022/06/16 22:42:28;;;;;;;10.15;4.10;;;;;;;;;;10379112;28;20030;-47
2022/06/16 22:47:28;;;;;;;9.35;4.30;;;;;;;;;;10389603;28;20187;-45
2022/06/16 22:52:29;;;;;;;8.88;5.05;;;;;;;;;;10373838;28;20034;-46
2022/06/16 22:57:31;;;;;;;23.35;5.75;;;;;;;;;;10372794;28;20029;-46
2022/06/16 23:02:31;;;;;;;12.10;7.03;;;;;;;;;;10377795;28;20053;-45
2022/06/16 23:07:32;;;;;;;14.18;6.57;;;;;;;;;;10388367;28;20018;-46
2022/06/16 23:12:32;;;;;;;10.57;6.85;;;;;;;;;;10371364;28;20477;-46
2022/06/16 23:17:33;;;;;;;11.27;6.43;;;;;;;;;;10378896;28;20029;-47
2022/06/16 23:22:34;;;;;;;9.15;6.05;;;;;;;;;;10375921;28;20022;-46
2022/06/16 23:27:35;;;;;;;7.82;6.00;;;;;;;;;;10380377;28;20037;-46
2022/06/16 23:32:36;;;;;;;7.63;5.40;;;;;;;;;;10368976;28;20486;-46
2022/06/16 23:37:37;;;;;;;8.02;5.40;;;;;;;;;;10373277;28;20098;-48
2022/06/16 23:42:38;;;;;;;11.13;5.50;;;;;;;;;;10393078;28;20075;-47
2022/06/16 23:53:00;;;;;;;15.80;6.13;;;;;;;;;;10365990;28;20034;-49
2022/06/16 23:58:01;;;;;;;10.68;6.40;;;;;;;;;;10379595;28;20030;-48
